Time;durP1;ratioP1;P1;durP2;ratioP2;P2;SDS_P1;SDS_P2;PMS_P1;PMS_P2;Temp;Humidity;BMP_temperature;BMP_pressure;BME280_temperature;BME280_humidity;BME280_pressure;Samples;Min_cycle;Max_cycle;Signal;HPM_P1;HPM_P2
2021/05/29 00:00:48;;;;;;;1999.90;999.90;;;14.20;99.90;;;;;;5077602;28;20173;-80
2021/05/29 00:03:15;;;;;;;1999.90;999.90;;;14.10;99.90;;;;;;5078586;28;20177;-81
2021/05/29 00:05:41;;;;;;;1999.90;999.90;;;14.10;99.90;;;;;;5060371;28;20173;-81
2021/05/29 00:08:08;;;;;;;1999.90;999.90;;;14.20;99.90;;;;;;5058144;28;20251;-82
2021/05/29 00:10:36;;;;;;;1999.90;999.90;;;14.10;99.90;;;;;;5075953;28;20199;-82
2021/05/29 00:13:02;;;;;;;1999.90;999.90;;;14.10;99.90;;;;;;5075495;28;20193;-83
2021/05/29 00:15:28;;;;;;;1999.90;999.90;;;14.10;99.90;;;;;;5058006;28;20169;-82
2021/05/29 00:17:54;;;;;;;1999.90;999.90;;;14.10;99.90;;;;;;5075376;28;20208;-82
2021/05/29 00:20:20;;;;;;;1999.90;999.90;;;14.00;99.90;;;;;;5076282;28;20200;-81
2021/05/29 00:22:47;;;;;;;1999.90;999.90;;;14.00;99.90;;;;;;5076224;28;20169;-82
2021/05/29 00:25:12;;;;;;;1999.90;999.90;;;14.00;99.90;;;;;;5057600;28;20183;-82
2021/05/29 00:27:38;;;;;;;1999.90;999.90;;;14.00;99.90;;;;;;5075628;28;20297;-82
2021/05/29 00:30:05;;;;;;;1999.90;999.90;;;14.00;99.90;;;;;;5076579;28;20244;-82
2021/05/29 00:32:31;;;;;;;1999.90;999.90;;;13.90;99.90;;;;;;5076400;28;20169;-82
2021/05/29 00:34:56;;;;;;;1999.90;999.90;;;13.90;99.90;;;;;;5075758;28;20169;-82
2021/05/29 00:37:22;;;;;;;1999.90;999.90;;;14.00;99.90;;;;;;5056574;28;20216;-84
2021/05/29 00:39:48;;;;;;;1999.90;999.90;;;13.90;99.90;;;;;;5075398;28;20184;-82
2021/05/29 00:42:14;;;;;;;1999.90;999.90;;;13.80;99.90;;;;;;5057406;28;20227;-80
2021/05/29 00:44:48;;;;;;;1999.90;999.90;;;13.80;99.90;;;;;;5056885;28;20265;-81
2021/05/29 00:47:13;;;;;;;1999.90;999.90;;;13.80;99.90;;;;;;5075047;28;20593;-82
2021/05/29 00:49:39;;;;;;;1999.90;999.90;;;13.80;99.90;;;;;;5056850;28;20196;-82
2021/05/29 00:52:05;;;;;;;1999.90;999.90;;;13.80;99.90;;;;;;5056465;28;20172;-79
2021/05/29 00:54:31;;;;;;;1999.90;999.90;;;13.70;99.90;;;;;;5074586;28;20201;-82
2021/05/29 00:56:56;;;;;;;1999.90;999.90;;;13.70;99.90;;;;;;5056849;28;20842;-81
2021/05/29 00:59:22;;;;;;;1999.90;999.90;;;13.70;99.90;;;;;;5056569;28;20276;-81
2021/05/29 01:01:48;;;;;;;1999.90;999.90;;;13.60;99.90;;;;;;5057009;28;20180;-82
2021/05/29 01:04:14;;;;;;;1999.90;999.90;;;13.60;99.90;;;;;;5057008;28;20173;-81
2021/05/29 01:06:40;;;;;;;1999.90;999.90;;;13.60;99.90;;;;;;5058557;28;20559;-81
2021/05/29 01:09:05;;;;;;;1999.90;999.90;;;13.60;99.90;;;;;;5057804;28;20189;-81
2021/05/29 01:11:31;;;;;;;1999.90;999.90;;;13.60;99.90;;;;;;5056671;28;20208;-82
2021/05/29 01:13:59;;;;;;;1999.90;999.90;;;13.60;99.90;;;;;;5056584;28;20188;-82
2021/05/29 01:19:04;;;;;;;1999.90;999.90;;;13.60;99.90;;;;;;5074699;28;20200;-82
2021/05/29 01:21:30;;;;;;;1999.90;999.90;;;13.60;99.90;;;;;;5056106;28;20242;-82
2021/05/29 01:23:56;;;;;;;1999.90;999.90;;;13.60;99.90;;;;;;5056470;28;20179;-81
2021/05/29 01:26:22;;;;;;;1999.90;999.90;;;13.50;99.90;;;;;;5076592;28;20292;-82
2021/05/29 01:28:54;;;;;;;1999.90;999.90;;;13.50;99.90;;;;;;5078568;28;20197;-81
2021/05/29 01:31:24;;;;;;;1999.90;999.90;;;13.50;99.90;;;;;;5075540;28;20672;-81
2021/05/29 01:33:55;;;;;;;1999.90;999.90;;;13.50;99.90;;;;;;5074806;28;20590;-81
2021/05/29 01:36:21;;;;;;;1999.90;999.90;;;13.50;99.90;;;;;;5074448;28;20581;-81
2021/05/29 01:38:47;;;;;;;1999.90;999.90;;;13.50;99.90;;;;;;5077711;28;20244;-81
2021/05/29 01:41:15;;;;;;;1999.90;999.90;;;13.50;99.90;;;;;;5059536;28;20566;-81
2021/05/29 01:43:43;;;;;;;1999.90;999.90;;;13.50;99.90;;;;;;5077489;28;20657;-81
2021/05/29 01:46:10;;;;;;;1999.90;999.90;;;13.50;99.90;;;;;;5077222;28;20188;-81
2021/05/29 01:48:39;;;;;;;1999.90;999.90;;;13.50;99.90;;;;;;5078000;28;20197;-83
2021/05/29 01:51:06;;;;;;;1999.90;999.90;;;13.40;99.90;;;;;;5059461;28;20189;-82
2021/05/29 01:53:32;;;;;;;1999.90;999.90;;;13.40;99.90;;;;;;5077371;28;20165;-82
2021/05/29 01:55:58;;;;;;;1999.90;999.90;;;13.40;99.90;;;;;;5077249;28;20664;-81
2021/05/29 01:58:24;;;;;;;1999.90;999.90;;;13.40;99.90;;;;;;5077914;28;20726;-81
2021/05/29 02:00:50;;;;;;;1999.90;999.90;;;13.40;99.90;;;;;;5076709;28;20169;-81
2021/05/29 02:03:16;;;;;;;1999.90;999.90;;;13.40;99.90;;;;;;5076744;28;20173;-82
2021/05/29 02:05:41;;;;;;;1999.90;999.90;;;13.40;99.90;;;;;;5076660;28;20169;-82
2021/05/29 02:08:09;;;;;;;1999.90;999.90;;;13.40;99.90;;;;;;5058760;28;20203;-81
2021/05/29 02:10:37;;;;;;;1999.90;999.90;;;13.40;99.90;;;;;;5077009;28;20208;-82
2021/05/29 02:13:05;;;;;;;1999.90;999.90;;;13.40;99.90;;;;;;5058454;28;20207;-82
2021/05/29 02:15:37;;;;;;;1999.90;999.90;;;13.30;99.90;;;;;;5065363;28;20189;-82
2021/05/29 02:18:08;;;;;;;1999.90;999.90;;;13.30;99.90;;;;;;5074971;28;20185;-81
2021/05/29 02:20:41;;;;;;;1999.90;999.90;;;13.30;99.90;;;;;;5076953;28;20177;-81
2021/05/29 02:23:09;;;;;;;1999.90;999.90;;;13.30;99.90;;;;;;5059093;28;20177;-82
2021/05/29 02:25:35;;;;;;;1999.90;999.90;;;13.30;99.90;;;;;;5076796;28;20181;-81
2021/05/29 02:28:01;;;;;;;1999.90;999.90;;;13.30;99.90;;;;;;5076286;28;20197;-81
2021/05/29 02:30:27;;;;;;;1999.90;999.90;;;13.30;99.90;;;;;;5059290;28;20243;-81
2021/05/29 02:32:53;;;;;;;1999.90;999.90;;;13.20;99.90;;;;;;5059412;28;20169;-81
2021/05/29 02:35:18;;;;;;;1999.90;999.90;;;13.20;99.90;;;;;;5068332;28;20180;-82
2021/05/29 02:37:44;;;;;;;1999.90;999.90;;;13.20;99.90;;;;;;5064692;28;20213;-81
2021/05/29 02:40:12;;;;;;;1999.90;999.90;;;13.20;99.90;;;;;;5075967;28;20173;-81
2021/05/29 02:42:38;;;;;;;1999.90;999.90;;;13.20;99.90;;;;;;5076371;28;20177;-82
2021/05/29 02:45:04;;;;;;;1999.90;999.90;;;13.10;99.90;;;;;;5057846;28;20180;-81
2021/05/29 02:47:30;;;;;;;1999.90;999.90;;;13.10;99.90;;;;;;5075161;28;20196;-82
2021/05/29 02:49:56;;;;;;;1999.90;999.90;;;13.10;99.90;;;;;;5076063;28;20257;-82
2021/05/29 02:52:21;;;;;;;1999.90;999.90;;;13.20;99.90;;;;;;5058289;28;20268;-81
2021/05/29 02:54:47;;;;;;;1999.90;999.90;;;13.10;99.90;;;;;;5058291;28;20176;-81
2021/05/29 02:57:13;;;;;;;1999.90;999.90;;;13.10;99.90;;;;;;5058030;28;20200;-82
2021/05/29 02:59:40;;;;;;;1999.90;999.90;;;13.00;99.90;;;;;;5075545;28;20184;-82
2021/05/29 03:02:08;;;;;;;1999.90;999.90;;;13.00;99.90;;;;;;5075607;28;20178;-81
2021/05/29 03:04:34;;;;;;;1999.90;999.90;;;13.00;99.90;;;;;;5058340;28;20196;-82
2021/05/29 03:07:00;;;;;;;1999.90;999.90;;;12.90;99.90;;;;;;5058814;28;20177;-82
2021/05/29 03:09:27;;;;;;;1999.90;999.90;;;12.90;99.90;;;;;;5077367;28;20177;-81
2021/05/29 03:11:53;;;;;;;1999.90;999.90;;;12.90;99.90;;;;;;5057995;28;20173;-82
2021/05/29 03:14:19;;;;;;;1999.90;999.90;;;12.90;99.90;;;;;;5075651;28;20302;-82
2021/05/29 03:16:44;;;;;;;1999.90;999.90;;;12.80;99.90;;;;;;5075669;28;20203;-83
2021/05/29 03:19:10;;;;;;;1999.90;999.90;;;12.80;99.90;;;;;;5075773;28;20251;-81
2021/05/29 03:21:36;;;;;;;1999.90;999.90;;;12.80;99.90;;;;;;5057250;28;20642;-81
2021/05/29 03:24:02;;;;;;;1999.90;999.90;;;12.90;99.90;;;;;;5075504;28;20184;-81
2021/05/29 03:26:27;;;;;;;1999.90;999.90;;;12.90;99.90;;;;;;5057407;28;20180;-81
2021/05/29 03:28:53;;;;;;;1999.90;999.90;;;12.90;99.90;;;;;;5072067;28;20196;-82
2021/05/29 03:31:19;;;;;;;1999.90;999.90;;;12.90;99.90;;;;;;5057400;28;20228;-81
2021/05/29 03:33:45;;;;;;;1999.90;999.90;;;12.90;99.90;;;;;;5075654;28;20176;-81
2021/05/29 03:36:10;;;;;;;1999.90;999.90;;;12.80;99.90;;;;;;5053615;28;20173;-82
2021/05/29 03:38:36;;;;;;;1999.90;999.90;;;12.90;99.90;;;;;;5056729;28;20204;-80
2021/05/29 03:41:02;;;;;;;1999.90;999.90;;;12.80;99.90;;;;;;5073544;28;20173;-81
2021/05/29 03:43:28;;;;;;;1999.90;999.90;;;12.80;99.90;;;;;;5075082;28;20179;-81
2021/05/29 03:45:53;;;;;;;1999.90;999.90;;;12.80;99.90;;;;;;5057592;28;20211;-81
2021/05/29 03:48:19;;;;;;;1999.90;999.90;;;12.80;99.90;;;;;;5056151;28;20216;-82
2021/05/29 03:50:45;;;;;;;1999.90;999.90;;;12.70;99.90;;;;;;5057062;28;20189;-82
2021/05/29 03:53:11;;;;;;;1999.90;999.90;;;12.80;99.90;;;;;;5075228;28;20696;-82
2021/05/29 03:55:37;;;;;;;1999.90;999.90;;;12.70;99.90;;;;;;5056721;28;20173;-81
2021/05/29 03:58:04;;;;;;;1999.90;999.90;;;12.70;99.90;;;;;;5056818;28;20952;-81
2021/05/29 04:00:30;;;;;;;1999.90;999.90;;;12.70;99.90;;;;;;5073689;28;20181;-82
2021/05/29 04:02:55;;;;;;;1999.90;999.90;;;12.70;99.90;;;;;;5074449;28;20226;-81
2021/05/29 04:05:22;;;;;;;1999.90;999.90;;;12.80;99.90;;;;;;5074592;28;20931;-81
2021/05/29 04:07:49;;;;;;;1999.90;999.90;;;12.80;99.90;;;;;;5072554;28;20232;-82
2021/05/29 04:10:18;;;;;;;1999.90;999.90;;;12.80;99.90;;;;;;5054908;28;20739;-82
2021/05/29 04:12:45;;;;;;;1999.90;999.90;;;12.80;99.90;;;;;;5074816;28;20230;-81
2021/05/29 04:15:12;;;;;;;1999.90;999.90;;;12.80;99.90;;;;;;5074642;28;20578;-80
2021/05/29 04:17:38;;;;;;;1999.90;999.90;;;12.80;99.90;;;;;;5056194;28;20667;-81
2021/05/29 04:20:05;;;;;;;1999.90;999.90;;;12.80;99.90;;;;;;5056418;28;20172;-82
2021/05/29 04:22:31;;;;;;;1999.90;999.90;;;12.80;99.90;;;;;;5057355;28;20181;-81
2021/05/29 04:24:57;;;;;;;1999.90;999.90;;;12.80;99.90;;;;;;5056734;28;20181;-81
2021/05/29 04:27:23;;;;;;;1999.90;999.90;;;12.80;99.90;;;;;;5074466;28;20691;-82
2021/05/29 04:29:48;;;;;;;1999.90;999.90;;;12.80;99.90;;;;;;5057252;28;20208;-81
2021/05/29 04:32:14;;;;;;;1999.90;999.90;;;12.80;99.90;;;;;;5075012;28;20927;-80
2021/05/29 04:34:40;;;;;;;1999.90;999.90;;;12.70;99.90;;;;;;5074503;28;20206;-81
2021/05/29 04:37:06;;;;;;;1999.90;999.90;;;12.80;99.90;;;;;;5056595;28;20220;-81
2021/05/29 04:39:32;;;;;;;1999.90;999.90;;;12.80;99.90;;;;;;5075138;28;20173;-82
2021/05/29 04:41:58;;;;;;;1999.90;999.90;;;12.90;99.90;;;;;;5057917;28;20169;-82
2021/05/29 04:44:24;;;;;;;1999.90;999.90;;;12.80;99.90;;;;;;5076360;28;20176;-81
2021/05/29 04:46:51;;;;;;;1999.90;999.90;;;12.80;99.90;;;;;;5075847;28;20218;-82
2021/05/29 04:49:21;;;;;;;1999.90;999.90;;;12.70;99.90;;;;;;5074853;28;20197;-83
2021/05/29 04:51:48;;;;;;;1999.90;999.90;;;12.80;99.90;;;;;;5063333;28;20197;-82
2021/05/29 04:54:14;;;;;;;1999.90;999.90;;;12.80;99.90;;;;;;5073305;28;20597;-81
2021/05/29 04:56:39;;;;;;;1999.90;999.90;;;12.80;99.90;;;;;;5063025;28;20181;-82
2021/05/29 04:59:05;;;;;;;1999.90;999.90;;;12.80;99.90;;;;;;5053996;28;20276;-80
2021/05/29 05:01:32;;;;;;;1999.90;999.90;;;12.80;99.90;;;;;;5060206;28;20632;-81
2021/05/29 05:04:01;;;;;;;1999.90;999.90;;;12.80;99.90;;;;;;5079399;28;20252;-81
2021/05/29 05:06:28;;;;;;;1999.90;999.90;;;12.80;99.90;;;;;;5078585;28;20173;-81
2021/05/29 05:08:54;;;;;;;1999.90;999.90;;;12.80;99.90;;;;;;5079256;28;20244;-81
2021/05/29 05:11:20;;;;;;;1999.90;999.90;;;12.80;99.90;;;;;;5059625;28;20193;-81
2021/05/29 05:13:46;;;;;;;1999.90;999.90;;;12.80;99.90;;;;;;5060333;28;20222;-81
2021/05/29 05:16:14;;;;;;;1999.90;999.90;;;12.80;99.90;;;;;;5060418;28;20193;-81
2021/05/29 05:18:40;;;;;;;1999.90;999.90;;;12.90;99.90;;;;;;5060193;28;20567;-81
2021/05/29 05:21:05;;;;;;;1999.90;999.90;;;12.80;99.90;;;;;;5055013;28;20196;-81
2021/05/29 05:23:31;;;;;;;1999.90;999.90;;;12.90;99.90;;;;;;5059625;28;20642;-81
2021/05/29 05:25:57;;;;;;;1999.90;999.90;;;12.90;99.90;;;;;;5075442;28;20203;-81
2021/05/29 05:28:27;;;;;;;1999.90;999.90;;;12.90;99.90;;;;;;5078189;28;20239;-81
2021/05/29 05:30:57;;;;;;;1999.90;999.90;;;13.00;99.90;;;;;;5078926;28;20197;-81
2021/05/29 05:33:24;;;;;;;1999.90;999.90;;;13.00;99.90;;;;;;5079170;28;20166;-81
2021/05/29 05:35:51;;;;;;;1999.90;999.90;;;13.00;99.90;;;;;;5086637;28;20327;-81
2021/05/29 05:38:17;;;;;;;1999.90;999.90;;;13.00;99.90;;;;;;5078204;28;20586;-82
2021/05/29 05:40:42;;;;;;;1999.90;999.90;;;13.10;99.90;;;;;;5060059;28;20249;-82
2021/05/29 05:43:09;;;;;;;1999.90;999.90;;;13.10;99.90;;;;;;5078483;28;20573;-81
2021/05/29 05:45:35;;;;;;;1999.90;999.90;;;13.00;99.90;;;;;;5078554;28;20212;-81
2021/05/29 05:48:01;;;;;;;1999.90;999.90;;;13.00;99.90;;;;;;5078562;28;20197;-81
2021/05/29 05:50:27;;;;;;;1999.90;999.90;;;13.10;99.90;;;;;;5079099;28;20200;-80
2021/05/29 05:52:53;;;;;;;1999.90;999.90;;;13.10;99.90;;;;;;5060862;28;20165;-82
2021/05/29 05:55:19;;;;;;;1999.90;999.90;;;13.10;99.90;;;;;;5078701;28;20292;-82
2021/05/29 05:57:44;;;;;;;1999.90;999.90;;;13.10;99.90;;;;;;5079289;28;20563;-82
2021/05/29 06:00:13;;;;;;;1999.90;999.90;;;13.10;99.90;;;;;;5079470;28;20177;-82
2021/05/29 06:02:39;;;;;;;1999.90;999.90;;;13.20;99.90;;;;;;5078883;28;20175;-81
2021/05/29 06:05:05;;;;;;;1999.90;999.90;;;13.10;99.90;;;;;;5078604;28;20493;-81
2021/05/29 06:09:56;;;;;;;1999.90;999.90;;;13.20;99.90;;;;;;5095323;23;20243;-77
2021/05/29 06:12:22;;;;;;;1999.90;999.90;;;13.10;99.90;;;;;;5073077;28;20598;-77
2021/05/29 06:20:17;;;;;;;1999.90;999.90;;;13.20;99.90;;;;;;5053497;28;20208;-77
2021/05/29 06:23:03;;;;;;;1999.90;999.90;;;13.30;99.90;;;;;;5053936;28;20227;-77
2021/05/29 06:25:29;;;;;;;1999.90;999.90;;;13.30;99.90;;;;;;5052288;28;20224;-79
2021/05/29 06:27:55;;;;;;;1999.90;999.90;;;13.30;99.90;;;;;;5056671;28;20206;-78
2021/05/29 06:30:21;;;;;;;1999.90;999.90;;;13.40;99.90;;;;;;5054301;28;20213;-78
2021/05/29 06:32:47;;;;;;;1999.90;999.90;;;13.40;99.90;;;;;;5054551;28;20178;-78
2021/05/29 06:35:13;;;;;;;1999.90;999.90;;;13.50;99.90;;;;;;5055695;28;20181;-79
2021/05/29 06:37:39;;;;;;;1999.90;999.90;;;13.50;99.90;;;;;;5055683;28;20178;-79
2021/05/29 06:40:06;;;;;;;1999.90;999.90;;;13.50;99.90;;;;;;5056057;28;20205;-79
2021/05/29 06:42:32;;;;;;;1999.90;999.90;;;13.60;99.90;;;;;;5057581;28;20709;-79
2021/05/29 06:44:58;;;;;;;1999.90;999.90;;;13.70;99.90;;;;;;5055676;28;20276;-79
2021/05/29 06:47:24;;;;;;;1999.90;999.90;;;13.70;99.90;;;;;;5055142;28;20178;-79
2021/05/29 06:49:50;;;;;;;1999.90;999.90;;;13.70;99.90;;;;;;5057597;28;20209;-79
2021/05/29 06:52:19;;;;;;;1999.90;999.90;;;13.70;99.90;;;;;;5057623;28;20173;-78
2021/05/29 06:59:58;;;;;;;1999.90;999.90;;;13.70;99.90;;;;;;5056968;28;20208;-79
2021/05/29 07:02:23;;;;;;;1999.90;999.90;;;13.70;99.90;;;;;;5055946;28;20181;-78
2021/05/29 07:04:51;;;;;;;1999.90;999.90;;;13.70;99.90;;;;;;5058619;28;20184;-79
2021/05/29 07:07:17;;;;;;;1999.90;999.90;;;13.70;99.90;;;;;;5054646;28;20174;-80
2021/05/29 07:09:43;;;;;;;1999.90;999.90;;;13.70;99.90;;;;;;5057532;28;20205;-79
2021/05/29 07:12:08;;;;;;;1999.90;999.90;;;13.70;99.90;;;;;;5057559;28;20219;-78
2021/05/29 07:14:34;;;;;;;1999.90;999.90;;;13.70;99.90;;;;;;5056195;28;20606;-78
2021/05/29 07:17:02;;;;;;;1999.90;999.90;;;13.70;99.90;;;;;;5056214;28;20182;-79
2021/05/29 07:19:28;;;;;;;1999.90;999.90;;;13.70;99.90;;;;;;5057556;28;20225;-79
2021/05/29 07:21:53;;;;;;;1999.90;999.90;;;13.80;99.90;;;;;;5060237;28;20181;-85
2021/05/29 07:24:20;;;;;;;1999.90;999.90;;;13.80;99.90;;;;;;5062982;28;20182;-85
2021/05/29 07:26:47;;;;;;;1999.90;999.90;;;13.90;99.90;;;;;;5064331;28;20630;-85
2021/05/29 07:29:13;;;;;;;1999.90;999.90;;;14.00;99.90;;;;;;5062604;28;20267;-85
2021/05/29 07:31:43;;;;;;;1999.90;999.90;;;14.10;99.90;;;;;;5063279;28;20210;-85
2021/05/29 07:34:09;;;;;;;1999.90;999.90;;;14.20;99.90;;;;;;5060791;28;20185;-85
2021/05/29 07:36:35;;;;;;;1999.90;999.90;;;14.20;99.90;;;;;;5061871;28;20186;-85
2021/05/29 07:39:00;;;;;;;1999.90;999.90;;;14.20;99.90;;;;;;5062952;28;20269;-85
2021/05/29 07:41:27;;;;;;;1999.90;999.90;;;14.20;99.90;;;;;;5066358;28;20188;-85
2021/05/29 07:43:52;;;;;;;1999.90;999.90;;;14.30;99.90;;;;;;5062631;28;20186;-86
2021/05/29 07:46:19;;;;;;;1999.90;999.90;;;14.40;99.90;;;;;;5062697;28;20182;-85
2021/05/29 07:48:45;;;;;;;1999.90;999.90;;;14.50;99.90;;;;;;5064347;28;20263;-85
2021/05/29 07:51:11;;;;;;;1999.90;999.90;;;14.50;99.90;;;;;;5062887;28;20253;-85
2021/05/29 07:53:39;;;;;;;1999.90;999.90;;;14.50;99.90;;;;;;5062196;28;20189;-86
2021/05/29 07:56:07;;;;;;;1999.90;999.90;;;14.60;99.90;;;;;;5062789;28;20235;-85
2021/05/29 07:58:34;;;;;;;1999.90;999.90;;;14.60;99.90;;;;;;5062369;28;20193;-85
2021/05/29 08:01:00;;;;;;;1999.90;999.90;;;14.70;99.90;;;;;;5065016;28;20170;-85
2021/05/29 08:03:27;;;;;;;1999.90;999.90;;;14.80;99.90;;;;;;5061112;28;20209;-80
2021/05/29 08:05:54;;;;;;;1999.90;999.90;;;14.70;99.90;;;;;;5058705;28;20704;-82
2021/05/29 08:08:21;;;;;;;1999.90;999.90;;;14.70;99.90;;;;;;5058326;28;20218;-82
2021/05/29 08:10:49;;;;;;;1999.90;999.90;;;14.80;99.90;;;;;;5060285;28;20204;-82
2021/05/29 08:13:18;;;;;;;1999.90;999.90;;;14.90;99.90;;;;;;5064404;28;20205;-82
2021/05/29 08:15:45;;;;;;;1999.90;999.90;;;14.90;99.90;;;;;;5066497;28;20178;-83
2021/05/29 08:18:12;;;;;;;1999.90;999.90;;;15.00;99.90;;;;;;5068825;28;20196;-82
2021/05/29 08:20:38;;;;;;;1999.90;999.90;;;15.10;99.90;;;;;;5071405;28;20188;-83
2021/05/29 08:23:05;;;;;;;1999.90;999.90;;;15.20;99.90;;;;;;5069374;28;20171;-82
2021/05/29 08:25:32;;;;;;;1999.90;999.90;;;15.20;99.90;;;;;;5074242;28;20184;-82
2021/05/29 08:27:59;;;;;;;1999.90;999.90;;;15.30;99.90;;;;;;5072256;28;20348;-82
2021/05/29 08:30:24;;;;;;;1999.90;999.90;;;15.40;99.90;;;;;;5072423;28;20196;-80
2021/05/29 08:32:51;;;;;;;1999.90;999.90;;;15.40;99.90;;;;;;5064787;28;20184;-81
2021/05/29 08:35:16;;;;;;;1999.90;999.90;;;15.40;99.90;;;;;;5071883;28;20193;-82
2021/05/29 08:37:44;;;;;;;1999.90;999.90;;;15.40;99.90;;;;;;5079997;28;20698;-79
2021/05/29 08:40:11;;;;;;;1999.90;999.90;;;15.40;99.90;;;;;;5080632;28;20196;-81
2021/05/29 08:42:36;;;;;;;1999.90;999.90;;;15.40;99.90;;;;;;5079435;28;20180;-79
2021/05/29 08:45:04;;;;;;;1999.90;999.90;;;15.50;99.90;;;;;;5071749;28;20194;-81
2021/05/29 08:47:30;;;;;;;1999.90;999.90;;;15.60;99.90;;;;;;5079689;28;20161;-81
2021/05/29 08:49:55;;;;;;;1999.90;999.90;;;15.60;99.90;;;;;;5077868;28;20209;-80
2021/05/29 08:52:51;;;;;;;;;;;;;;;;;;;;;
2021/05/29 08:55:18;;;;;;;1999.90;999.90;;;15.80;99.90;;;;;;5079078;28;20212;-81
2021/05/29 08:57:45;;;;;;;1999.90;999.90;;;15.90;99.90;;;;;;5079143;28;20185;-81
2021/05/29 09:00:16;;;;;;;1999.90;999.90;;;16.00;99.90;;;;;;5094708;28;20264;-80
2021/05/29 09:03:03;;;;;;;1999.90;999.90;;;16.00;99.90;;;;;;5078798;28;20170;-81
2021/05/29 09:05:48;;;;;;;1999.90;999.90;;;16.10;99.90;;;;;;5075124;28;20238;-81
2021/05/29 09:08:14;;;;;;;1999.90;999.90;;;16.10;99.90;;;;;;5076957;28;20233;-81
2021/05/29 09:10:43;;;;;;;1999.90;999.90;;;16.10;99.90;;;;;;5075474;28;20213;-80
2021/05/29 09:13:14;;;;;;;1999.90;999.90;;;16.10;99.90;;;;;;5064683;28;20166;-81
2021/05/29 09:15:47;;;;;;;1999.90;999.90;;;16.20;99.90;;;;;;5060383;28;20178;-81
2021/05/29 09:18:27;;;;;;;1999.90;999.90;;;16.20;99.90;;;;;;5061189;28;20194;-81
2021/05/29 09:20:54;;;;;;;1999.90;999.90;;;16.30;99.90;;;;;;5058345;28;20342;-81
2021/05/29 09:23:19;;;;;;;1999.90;999.90;;;16.40;99.90;;;;;;5059678;28;20251;-81
2021/05/29 09:25:53;;;;;;;1999.90;999.90;;;16.50;99.90;;;;;;5059108;28;20226;-82
2021/05/29 09:28:25;;;;;;;1999.90;999.90;;;16.60;99.90;;;;;;5059624;28;20189;-81
2021/05/29 09:30:54;;;;;;;1999.90;999.90;;;16.50;99.90;;;;;;5061587;28;20205;-82
2021/05/29 09:33:27;;;;;;;1999.90;999.90;;;16.60;99.90;;;;;;5046591;28;20174;-82
2021/05/29 09:36:01;;;;;;;1999.90;999.90;;;16.60;99.90;;;;;;5058971;28;20206;-82
2021/05/29 09:38:35;;;;;;;1999.90;999.90;;;16.70;99.90;;;;;;5042911;28;20209;-82
2021/05/29 09:41:03;;;;;;;1999.90;999.90;;;16.80;99.90;;;;;;5059462;28;20733;-82
2021/05/29 09:43:29;;;;;;;1999.90;999.90;;;16.90;99.90;;;;;;5058557;28;20188;-82
2021/05/29 09:45:58;;;;;;;1999.90;999.90;;;16.90;99.90;;;;;;5063417;28;20180;-81
2021/05/29 09:48:24;;;;;;;1999.90;999.90;;;16.90;99.90;;;;;;5059959;28;20559;-82
2021/05/29 09:51:09;;;;;;;1999.90;999.90;;;16.90;99.90;;;;;;5059477;28;20195;-82
2021/05/29 09:53:41;;;;;;;1999.90;999.90;;;16.80;99.90;;;;;;5059758;28;20257;-82
2021/05/29 09:56:21;;;;;;;1999.90;999.90;;;16.90;99.90;;;;;;5059971;28;20689;-83
2021/05/29 09:59:10;;;;;;;1999.90;999.90;;;16.80;99.90;;;;;;5046854;28;20553;-82
2021/05/29 10:01:45;;;;;;;1999.90;999.90;;;16.80;99.90;;;;;;5046410;28;20583;-80
2021/05/29 10:04:37;;;;;;;1999.90;999.90;;;16.80;99.90;;;;;;5059012;28;20165;-82
2021/05/29 10:07:07;;;;;;;1999.90;999.90;;;16.90;99.90;;;;;;5058500;28;20166;-81
2021/05/29 10:09:34;;;;;;;1999.90;999.90;;;16.90;99.90;;;;;;5058687;28;20213;-81
2021/05/29 10:12:02;;;;;;;1999.90;999.90;;;16.90;99.90;;;;;;5060666;28;20630;-81
2021/05/29 10:14:30;;;;;;;1999.90;999.90;;;16.90;99.90;;;;;;5059588;28;20180;-81
2021/05/29 10:17:03;;;;;;;1999.90;999.90;;;17.00;99.90;;;;;;5057276;28;20175;-81
2021/05/29 10:19:30;;;;;;;1999.90;999.90;;;17.00;99.90;;;;;;5059050;28;20200;-81
2021/05/29 10:21:56;;;;;;;1999.90;999.90;;;17.10;99.90;;;;;;5058141;28;20187;-83
2021/05/29 10:24:24;;;;;;;1999.90;999.90;;;17.00;99.90;;;;;;5062337;28;20180;-82
2021/05/29 10:26:52;;;;;;;1999.90;999.90;;;17.10;99.90;;;;;;5059859;28;20204;-79
2021/05/29 10:29:24;;;;;;;1999.90;999.90;;;17.10;99.90;;;;;;5059405;28;20197;-81
2021/05/29 10:31:49;;;;;;;1999.90;999.90;;;17.20;99.90;;;;;;5060156;28;20203;-81
2021/05/29 10:34:15;;;;;;;1999.90;999.90;;;17.40;99.90;;;;;;5058551;28;20180;-81
2021/05/29 10:36:45;;;;;;;1999.90;999.90;;;17.30;99.90;;;;;;5058851;28;20539;-81
2021/05/29 10:39:41;;;;;;;1999.90;999.90;;;17.30;99.90;;;;;;5057717;28;20197;-81
2021/05/29 10:42:07;;;;;;;1999.90;999.90;;;17.20;99.90;;;;;;5058140;28;20203;-81
2021/05/29 10:44:41;;;;;;;1999.90;999.90;;;17.20;99.90;;;;;;5057787;28;20180;-82
2021/05/29 10:47:10;;;;;;;1999.90;999.90;;;17.20;99.90;;;;;;5058983;28;20180;-81
2021/05/29 10:49:48;;;;;;;1999.90;999.90;;;17.20;99.90;;;;;;5058907;28;20195;-82
2021/05/29 10:52:36;;;;;;;1999.90;999.90;;;17.30;99.90;;;;;;5060766;28;20180;-81
2021/05/29 10:55:13;;;;;;;1999.90;999.90;;;17.50;99.90;;;;;;5047654;28;20188;-82
2021/05/29 10:57:55;;;;;;;1999.90;999.90;;;17.80;99.90;;;;;;5062000;28;20210;-81
2021/05/29 11:00:40;;;;;;;1999.90;999.90;;;18.00;99.90;;;;;;5061303;28;20541;-81
2021/05/29 11:03:21;;;;;;;1999.90;999.90;;;18.00;99.90;;;;;;5063030;28;20213;-81
2021/05/29 11:05:55;;;;;;;1999.90;999.90;;;18.10;99.90;;;;;;5059743;28;20177;-82
2021/05/29 11:08:46;;;;;;;1999.90;999.90;;;18.10;99.90;;;;;;5058978;28;20240;-81
2021/05/29 11:11:41;;;;;;;1999.90;999.90;;;18.10;99.90;;;;;;5061113;28;20189;-80
2021/05/29 11:14:10;;;;;;;1999.90;999.90;;;18.10;99.90;;;;;;5060674;28;20190;-81
2021/05/29 11:19:32;;;;;;;1999.90;999.90;;;18.20;99.90;;;;;;5061812;28;20205;-79
2021/05/29 11:22:11;;;;;;;1999.90;999.90;;;18.30;99.90;;;;;;5055881;28;20174;-80
2021/05/29 11:24:52;;;;;;;1999.90;999.90;;;18.30;99.90;;;;;;5061451;28;20227;-80
2021/05/29 11:27:20;;;;;;;1999.90;999.90;;;18.20;99.90;;;;;;5062420;28;20173;-80
2021/05/29 11:29:56;;;;;;;1999.90;999.90;;;18.30;99.90;;;;;;5060733;28;20208;-80
2021/05/29 11:32:53;;;;;;;1999.90;999.90;;;;;;;;;;5060573;28;20184;-80
2021/05/29 11:35:53;;;;;;;1999.90;999.90;;;18.70;99.90;;;;;;5063111;28;20520;-81
2021/05/29 11:38:38;;;;;;;1999.90;999.90;;;18.80;99.90;;;;;;5028123;28;20213;-80
2021/05/29 11:41:08;;;;;;;1999.90;999.90;;;18.80;99.90;;;;;;5061005;28;20178;-81
2021/05/29 11:43:41;;;;;;;1999.90;999.90;;;18.70;99.90;;;;;;5060447;28;20319;-81
2021/05/29 11:46:11;;;;;;;1999.90;999.90;;;18.80;99.90;;;;;;5073581;28;20556;-81
2021/05/29 11:48:47;;;;;;;1999.90;999.90;;;18.80;99.90;;;;;;5060271;28;20679;-81
2021/05/29 11:51:17;;;;;;;1999.90;999.90;;;18.90;99.90;;;;;;5062188;28;20585;-82
2021/05/29 11:53:48;;;;;;;1999.90;999.90;;;18.90;99.90;;;;;;5060868;28;20173;-80
2021/05/29 11:56:16;;;;;;;1999.90;999.90;;;19.10;99.90;;;;;;5060321;28;20185;-81
2021/05/29 11:58:53;;;;;;;1999.90;999.90;;;19.10;99.90;;;;;;5062173;28;20205;-81
2021/05/29 12:01:27;;;;;;;1999.90;999.90;;;19.20;99.80;;;;;;5055288;28;20185;-80
2021/05/29 12:03:56;;;;;;;1999.90;999.90;;;19.20;99.90;;;;;;5061191;28;20175;-81
2021/05/29 12:06:41;;;;;;;1999.90;999.90;;;19.20;99.90;;;;;;5060987;28;20227;-79
2021/05/29 12:09:16;;;;;;;1999.90;999.90;;;19.30;99.90;;;;;;5113258;22;20256;-83
2021/05/29 12:12:03;;;;;;;1999.90;999.90;;;19.30;99.90;;;;;;5060982;28;20224;-80
2021/05/29 12:14:35;;;;;;;1999.90;999.90;;;19.60;99.90;;;;;;5057130;28;20242;-82
2021/05/29 12:17:02;;;;;;;1999.90;999.90;;;19.50;99.90;;;;;;5056666;28;20174;-82
2021/05/29 12:19:45;;;;;;;1999.90;999.90;;;19.60;99.90;;;;;;5060868;28;20193;-81
2021/05/29 12:22:12;;;;;;;1999.90;999.90;;;;;;;;;;5060585;28;20702;-80
2021/05/29 12:24:40;;;;;;;1999.90;999.90;;;;;;;;;;5046272;28;20252;-82
2021/05/29 12:27:06;;;;;;;1999.90;999.90;;;;;;;;;;5040595;28;20249;-81